sensor_id;sensor_type;location;lat;lon;timestamp;temperature;humidity
13794;DHT22;31160;49.500;7.772;2024-02-23T00:01:12;6.20;99.90
13794;DHT22;31160;49.500;7.772;2024-02-23T00:03:39;6.30;99.90
13794;DHT22;31160;49.500;7.772;2024-02-23T00:06:06;6.30;99.90
13794;DHT22;31160;49.500;7.772;2024-02-23T00:08:33;6.20;99.90
13794;DHT22;31160;49.500;7.772;2024-02-23T00:11:00;6.20;99.90
13794;DHT22;31160;49.500;7.772;2024-02-23T00:13:27;6.20;99.90
13794;DHT22;31160;49.500;7.772;2024-02-23T00:15:53;6.20;99.90
13794;DHT22;31160;49.500;7.772;2024-02-23T00:18:20;6.10;99.90
13794;DHT22;31160;49.500;7.772;2024-02-23T00:20:47;6.10;99.90
13794;DHT22;31160;49.500;7.772;2024-02-23T00:23:14;6.20;99.90
13794;DHT22;31160;49.500;7.772;2024-02-23T00:25:41;6.20;99.90
13794;DHT22;31160;49.500;7.772;2024-02-23T00:28:08;6.40;99.90
13794;DHT22;31160;49.500;7.772;2024-02-23T00:30:35;6.40;99.90
13794;DHT22;31160;49.500;7.772;2024-02-23T00:33:02;6.40;99.90
13794;DHT22;31160;49.500;7.772;2024-02-23T00:35:29;6.50;99.90
13794;DHT22;31160;49.500;7.772;2024-02-23T00:37:56;6.60;99.90
13794;DHT22;31160;49.500;7.772;2024-02-23T00:40:23;6.60;99.90
13794;DHT22;31160;49.500;7.772;2024-02-23T00:42:50;6.60;99.90
13794;DHT22;31160;49.500;7.772;2024-02-23T00:45:17;6.60;99.90
13794;DHT22;31160;49.500;7.772;2024-02-23T00:47:44;6.60;99.90
13794;DHT22;31160;49.500;7.772;2024-02-23T00:50:14;6.70;99.90
13794;DHT22;31160;49.500;7.772;2024-02-23T00:52:41;6.20;99.90
13794;DHT22;31160;49.500;7.772;2024-02-23T00:55:08;5.70;99.90
13794;DHT22;31160;49.500;7.772;2024-02-23T00:57:35;5.20;99.90
13794;DHT22;31160;49.500;7.772;2024-02-23T01:00:03;5.10;99.90
13794;DHT22;31160;49.500;7.772;2024-02-23T01:02:33;5.00;99.90
13794;DHT22;31160;49.500;7.772;2024-02-23T01:05:00;4.90;99.90
13794;DHT22;31160;49.500;7.772;2024-02-23T01:07:27;4.90;99.90
13794;DHT22;31160;49.500;7.772;2024-02-23T01:09:54;4.70;99.90
13794;DHT22;31160;49.500;7.772;2024-02-23T01:12:21;4.70;99.90
13794;DHT22;31160;49.500;7.772;2024-02-23T01:14:48;4.60;99.90
13794;DHT22;31160;49.500;7.772;2024-02-23T01:17:15;4.50;99.90
13794;DHT22;31160;49.500;7.772;2024-02-23T01:19:43;4.50;99.90
13794;DHT22;31160;49.500;7.772;2024-02-23T01:22:10;4.30;99.90
13794;DHT22;31160;49.500;7.772;2024-02-23T01:24:36;4.30;99.90
13794;DHT22;31160;49.500;7.772;2024-02-23T01:27:03;4.30;99.90
13794;DHT22;31160;49.500;7.772;2024-02-23T01:29:30;4.20;99.90
13794;DHT22;31160;49.500;7.772;2024-02-23T01:31:57;4.10;99.90
13794;DHT22;31160;49.500;7.772;2024-02-23T01:34:24;4.10;99.90
13794;DHT22;31160;49.500;7.772;2024-02-23T01:36:51;4.20;99.90
13794;DHT22;31160;49.500;7.772;2024-02-23T01:39:18;4.30;99.90
13794;DHT22;31160;49.500;7.772;2024-02-23T01:41:46;4.20;99.90
13794;DHT22;31160;49.500;7.772;2024-02-23T01:44:12;4.20;99.90
13794;DHT22;31160;49.500;7.772;2024-02-23T01:46:39;4.10;99.90
13794;DHT22;31160;49.500;7.772;2024-02-23T01:49:07;4.10;99.90
13794;DHT22;31160;49.500;7.772;2024-02-23T01:51:34;4.20;99.90
13794;DHT22;31160;49.500;7.772;2024-02-23T01:54:02;4.10;99.90
13794;DHT22;31160;49.500;7.772;2024-02-23T01:56:31;4.10;99.90
13794;DHT22;31160;49.500;7.772;2024-02-23T01:58:59;4.10;99.90
13794;DHT22;31160;49.500;7.772;2024-02-23T02:01:26;4.10;99.90
13794;DHT22;31160;49.500;7.772;2024-02-23T02:03:54;4.10;99.90
13794;DHT22;31160;49.500;7.772;2024-02-23T02:06:23;4.20;99.90
13794;DHT22;31160;49.500;7.772;2024-02-23T02:08:50;4.10;99.90
13794;DHT22;31160;49.500;7.772;2024-02-23T02:11:17;4.20;99.90
13794;DHT22;31160;49.500;7.772;2024-02-23T02:13:44;4.20;99.90
13794;DHT22;31160;49.500;7.772;2024-02-23T02:16:11;4.10;99.90
13794;DHT22;31160;49.500;7.772;2024-02-23T02:18:38;4.30;99.90
13794;DHT22;31160;49.500;7.772;2024-02-23T02:21:04;4.40;99.90
13794;DHT22;31160;49.500;7.772;2024-02-23T02:23:32;4.40;99.90
13794;DHT22;31160;49.500;7.772;2024-02-23T02:25:59;4.50;99.90
13794;DHT22;31160;49.500;7.772;2024-02-23T02:28:26;4.60;99.90
13794;DHT22;31160;49.500;7.772;2024-02-23T02:30:52;4.70;99.90
13794;DHT22;31160;49.500;7.772;2024-02-23T02:33:20;4.80;99.90
13794;DHT22;31160;49.500;7.772;2024-02-23T02:35:47;4.80;99.90
13794;DHT22;31160;49.500;7.772;2024-02-23T02:38:14;4.70;99.90
13794;DHT22;31160;49.500;7.772;2024-02-23T02:40:41;4.60;99.90
13794;DHT22;31160;49.500;7.772;2024-02-23T02:43:08;4.60;99.90
13794;DHT22;31160;49.500;7.772;2024-02-23T02:45:35;4.60;99.90
13794;DHT22;31160;49.500;7.772;2024-02-23T02:48:02;4.60;99.90
13794;DHT22;31160;49.500;7.772;2024-02-23T02:50:30;4.60;99.90
13794;DHT22;31160;49.500;7.772;2024-02-23T02:52:57;4.70;99.90
13794;DHT22;31160;49.500;7.772;2024-02-23T02:55:24;4.70;99.90
13794;DHT22;31160;49.500;7.772;2024-02-23T02:57:51;4.70;99.90
13794;DHT22;31160;49.500;7.772;2024-02-23T03:00:17;4.80;99.90
13794;DHT22;31160;49.500;7.772;2024-02-23T03:02:44;4.70;99.90
13794;DHT22;31160;49.500;7.772;2024-02-23T03:05:11;4.70;99.90
13794;DHT22;31160;49.500;7.772;2024-02-23T03:07:38;4.60;99.90
13794;DHT22;31160;49.500;7.772;2024-02-23T03:10:05;4.60;99.90
13794;DHT22;31160;49.500;7.772;2024-02-23T03:12:32;4.80;99.90
13794;DHT22;31160;49.500;7.772;2024-02-23T03:14:59;4.80;99.90
13794;DHT22;31160;49.500;7.772;2024-02-23T03:17:26;4.80;99.90
13794;DHT22;31160;49.500;7.772;2024-02-23T03:19:52;4.90;99.90
13794;DHT22;31160;49.500;7.772;2024-02-23T03:22:20;4.80;99.90
13794;DHT22;31160;49.500;7.772;2024-02-23T03:24:46;4.70;99.90
13794;DHT22;31160;49.500;7.772;2024-02-23T03:27:13;4.70;99.90
13794;DHT22;31160;49.500;7.772;2024-02-23T03:29:40;4.70;99.90
13794;DHT22;31160;49.500;7.772;2024-02-23T03:32:07;4.70;99.90
13794;DHT22;31160;49.500;7.772;2024-02-23T03:34:35;4.60;99.90
13794;DHT22;31160;49.500;7.772;2024-02-23T03:37:02;4.50;99.90
13794;DHT22;31160;49.500;7.772;2024-02-23T03:39:29;4.50;99.90
13794;DHT22;31160;49.500;7.772;2024-02-23T03:41:56;4.30;99.90
13794;DHT22;31160;49.500;7.772;2024-02-23T03:44:23;4.30;99.90
13794;DHT22;31160;49.500;7.772;2024-02-23T03:46:50;4.30;99.90
13794;DHT22;31160;49.500;7.772;2024-02-23T03:49:17;4.30;99.90
13794;DHT22;31160;49.500;7.772;2024-02-23T03:51:44;4.30;99.90
13794;DHT22;31160;49.500;7.772;2024-02-23T03:54:11;4.20;99.90
13794;DHT22;31160;49.500;7.772;2024-02-23T03:56:41;4.20;99.90
13794;DHT22;31160;49.500;7.772;2024-02-23T03:59:09;4.10;99.90
13794;DHT22;31160;49.500;7.772;2024-02-23T04:01:39;4.10;99.90
13794;DHT22;31160;49.500;7.772;2024-02-23T04:04:06;4.10;99.90
13794;DHT22;31160;49.500;7.772;2024-02-23T04:06:34;4.10;99.90
13794;DHT22;31160;49.500;7.772;2024-02-23T04:09:02;4.10;99.90
13794;DHT22;31160;49.500;7.772;2024-02-23T04:11:32;4.10;99.90
13794;DHT22;31160;49.500;7.772;2024-02-23T04:13:58;4.00;99.90
13794;DHT22;31160;49.500;7.772;2024-02-23T04:16:27;4.00;99.90
13794;DHT22;31160;49.500;7.772;2024-02-23T04:18:54;4.00;99.90
13794;DHT22;31160;49.500;7.772;2024-02-23T04:21:21;4.00;99.90
13794;DHT22;31160;49.500;7.772;2024-02-23T04:23:48;4.10;99.90
13794;DHT22;31160;49.500;7.772;2024-02-23T04:26:15;4.10;99.90
13794;DHT22;31160;49.500;7.772;2024-02-23T04:28:41;4.20;99.90
13794;DHT22;31160;49.500;7.772;2024-02-23T04:31:08;4.10;99.90
13794;DHT22;31160;49.500;7.772;2024-02-23T04:33:37;4.30;99.90
13794;DHT22;31160;49.500;7.772;2024-02-23T04:36:04;4.10;99.90
13794;DHT22;31160;49.500;7.772;2024-02-23T04:38:31;4.10;99.90
13794;DHT22;31160;49.500;7.772;2024-02-23T04:40:58;4.00;99.90
13794;DHT22;31160;49.500;7.772;2024-02-23T04:43:28;4.00;99.90
13794;DHT22;31160;49.500;7.772;2024-02-23T04:45:55;4.00;99.90
13794;DHT22;31160;49.500;7.772;2024-02-23T04:48:22;4.10;99.90
13794;DHT22;31160;49.500;7.772;2024-02-23T04:50:49;4.10;99.90
13794;DHT22;31160;49.500;7.772;2024-02-23T04:53:15;4.10;99.90
13794;DHT22;31160;49.500;7.772;2024-02-23T04:55:42;4.10;99.90
13794;DHT22;31160;49.500;7.772;2024-02-23T04:58:09;4.10;99.90
13794;DHT22;31160;49.500;7.772;2024-02-23T05:00:36;4.20;99.90
13794;DHT22;31160;49.500;7.772;2024-02-23T05:03:03;4.10;99.90
13794;DHT22;31160;49.500;7.772;2024-02-23T05:05:31;4.20;99.90
13794;DHT22;31160;49.500;7.772;2024-02-23T05:07:58;4.30;99.90
13794;DHT22;31160;49.500;7.772;2024-02-23T05:10:26;4.30;99.90
13794;DHT22;31160;49.500;7.772;2024-02-23T05:12:53;4.40;99.90
13794;DHT22;31160;49.500;7.772;2024-02-23T05:15:20;4.40;99.90
13794;DHT22;31160;49.500;7.772;2024-02-23T05:17:46;4.20;99.90
13794;DHT22;31160;49.500;7.772;2024-02-23T05:20:14;4.30;99.90
13794;DHT22;31160;49.500;7.772;2024-02-23T05:22:41;4.30;99.90
13794;DHT22;31160;49.500;7.772;2024-02-23T05:25:08;4.30;99.90
13794;DHT22;31160;49.500;7.772;2024-02-23T05:27:35;4.40;99.90
13794;DHT22;31160;49.500;7.772;2024-02-23T05:30:02;4.40;99.90
13794;DHT22;31160;49.500;7.772;2024-02-23T05:32:29;4.50;99.90
13794;DHT22;31160;49.500;7.772;2024-02-23T05:34:56;4.60;99.90
13794;DHT22;31160;49.500;7.772;2024-02-23T05:37:24;4.70;99.90
13794;DHT22;31160;49.500;7.772;2024-02-23T05:39:51;4.80;99.90
13794;DHT22;31160;49.500;7.772;2024-02-23T05:42:18;4.60;99.90
13794;DHT22;31160;49.500;7.772;2024-02-23T05:44:45;4.70;99.90
13794;DHT22;31160;49.500;7.772;2024-02-23T05:47:12;4.70;99.90
13794;DHT22;31160;49.500;7.772;2024-02-23T05:49:40;4.70;99.90
13794;DHT22;31160;49.500;7.772;2024-02-23T05:52:07;4.80;99.90
13794;DHT22;31160;49.500;7.772;2024-02-23T05:54:34;4.70;99.90
13794;DHT22;31160;49.500;7.772;2024-02-23T05:57:01;4.80;99.90
13794;DHT22;31160;49.500;7.772;2024-02-23T05:59:28;5.00;99.90
13794;DHT22;31160;49.500;7.772;2024-02-23T06:01:55;4.80;99.90
13794;DHT22;31160;49.500;7.772;2024-02-23T06:04:25;4.80;99.90
13794;DHT22;31160;49.500;7.772;2024-02-23T06:06:51;4.70;99.90
13794;DHT22;31160;49.500;7.772;2024-02-23T06:09:18;4.70;99.90
13794;DHT22;31160;49.500;7.772;2024-02-23T06:11:46;4.80;99.90
13794;DHT22;31160;49.500;7.772;2024-02-23T06:14:13;4.80;99.90
13794;DHT22;31160;49.500;7.772;2024-02-23T06:16:40;4.80;99.90
13794;DHT22;31160;49.500;7.772;2024-02-23T06:19:07;4.80;99.90
13794;DHT22;31160;49.500;7.772;2024-02-23T06:21:34;4.50;99.90
13794;DHT22;31160;49.500;7.772;2024-02-23T06:24:01;4.60;99.90
13794;DHT22;31160;49.500;7.772;2024-02-23T06:26:28;4.50;99.90
13794;DHT22;31160;49.500;7.772;2024-02-23T06:28:55;4.40;99.90
13794;DHT22;31160;49.500;7.772;2024-02-23T06:31:21;4.30;99.90
13794;DHT22;31160;49.500;7.772;2024-02-23T06:33:48;4.30;99.90
13794;DHT22;31160;49.500;7.772;2024-02-23T06:36:16;4.40;99.90
13794;DHT22;31160;49.500;7.772;2024-02-23T06:38:44;4.50;99.90
13794;DHT22;31160;49.500;7.772;2024-02-23T06:41:13;4.20;99.90
13794;DHT22;31160;49.500;7.772;2024-02-23T06:43:41;4.20;99.90
13794;DHT22;31160;49.500;7.772;2024-02-23T06:46:08;4.20;99.90
13794;DHT22;31160;49.500;7.772;2024-02-23T06:48:36;4.20;99.90
13794;DHT22;31160;49.500;7.772;2024-02-23T06:51:06;4.10;99.90
13794;DHT22;31160;49.500;7.772;2024-02-23T06:53:36;4.10;99.90
13794;DHT22;31160;49.500;7.772;2024-02-23T06:56:04;4.20;99.90
13794;DHT22;31160;49.500;7.772;2024-02-23T06:58:31;4.40;99.90
13794;DHT22;31160;49.500;7.772;2024-02-23T07:00:58;4.40;99.90
13794;DHT22;31160;49.500;7.772;2024-02-23T07:03:25;4.40;99.90
13794;DHT22;31160;49.500;7.772;2024-02-23T07:05:52;4.60;99.90
13794;DHT22;31160;49.500;7.772;2024-02-23T07:08:19;4.70;99.90
13794;DHT22;31160;49.500;7.772;2024-02-23T07:10:46;4.70;99.90
13794;DHT22;31160;49.500;7.772;2024-02-23T07:13:13;4.60;99.90
13794;DHT22;31160;49.500;7.772;2024-02-23T07:15:39;4.80;99.90
13794;DHT22;31160;49.500;7.772;2024-02-23T07:18:06;4.80;99.90
13794;DHT22;31160;49.500;7.772;2024-02-23T07:20:36;5.00;99.90
13794;DHT22;31160;49.500;7.772;2024-02-23T07:23:04;5.00;99.90
13794;DHT22;31160;49.500;7.772;2024-02-23T07:25:31;5.10;99.90
13794;DHT22;31160;49.500;7.772;2024-02-23T07:27:58;5.30;99.90
13794;DHT22;31160;49.500;7.772;2024-02-23T07:30:25;5.40;99.90
13794;DHT22;31160;49.500;7.772;2024-02-23T07:32:51;5.40;99.90
13794;DHT22;31160;49.500;7.772;2024-02-23T07:35:19;5.20;99.90
13794;DHT22;31160;49.500;7.772;2024-02-23T07:37:46;5.20;99.90
13794;DHT22;31160;49.500;7.772;2024-02-23T07:40:13;5.20;99.90
13794;DHT22;31160;49.500;7.772;2024-02-23T07:42:44;5.30;99.90
13794;DHT22;31160;49.500;7.772;2024-02-23T07:45:11;5.10;99.90
13794;DHT22;31160;49.500;7.772;2024-02-23T07:47:38;5.10;99.90
13794;DHT22;31160;49.500;7.772;2024-02-23T07:50:05;5.20;99.90
13794;DHT22;31160;49.500;7.772;2024-02-23T07:52:32;5.30;99.90
13794;DHT22;31160;49.500;7.772;2024-02-23T07:55:00;5.40;99.90
13794;DHT22;31160;49.500;7.772;2024-02-23T07:57:29;5.50;99.90
13794;DHT22;31160;49.500;7.772;2024-02-23T07:59:57;5.50;99.90
13794;DHT22;31160;49.500;7.772;2024-02-23T08:02:24;5.70;99.90
13794;DHT22;31160;49.500;7.772;2024-02-23T08:04:51;5.60;99.90
13794;DHT22;31160;49.500;7.772;2024-02-23T08:07:19;5.80;99.90
13794;DHT22;31160;49.500;7.772;2024-02-23T08:09:46;5.90;99.90
13794;DHT22;31160;49.500;7.772;2024-02-23T08:12:12;6.10;99.90
13794;DHT22;31160;49.500;7.772;2024-02-23T08:14:41;6.00;99.90
13794;DHT22;31160;49.500;7.772;2024-02-23T08:17:08;6.00;99.90
13794;DHT22;31160;49.500;7.772;2024-02-23T08:19:35;6.20;99.90
13794;DHT22;31160;49.500;7.772;2024-02-23T08:22:02;6.30;99.90
13794;DHT22;31160;49.500;7.772;2024-02-23T08:24:29;6.40;99.90
13794;DHT22;31160;49.500;7.772;2024-02-23T08:26:56;6.50;99.90
13794;DHT22;31160;49.500;7.772;2024-02-23T08:29:23;6.70;99.90
13794;DHT22;31160;49.500;7.772;2024-02-23T08:31:49;6.80;99.90
13794;DHT22;31160;49.500;7.772;2024-02-23T08:34:16;6.60;99.90
13794;DHT22;31160;49.500;7.772;2024-02-23T08:36:44;6.70;99.90
13794;DHT22;31160;49.500;7.772;2024-02-23T08:39:11;6.60;99.90
13794;DHT22;31160;49.500;7.772;2024-02-23T08:41:38;6.40;99.90
13794;DHT22;31160;49.500;7.772;2024-02-23T08:44:05;6.50;99.90
13794;DHT22;31160;49.500;7.772;2024-02-23T08:46:32;6.60;99.90
13794;DHT22;31160;49.500;7.772;2024-02-23T08:48:59;6.80;99.90
13794;DHT22;31160;49.500;7.772;2024-02-23T08:51:26;7.10;99.90
13794;DHT22;31160;49.500;7.772;2024-02-23T08:53:53;7.20;99.90
13794;DHT22;31160;49.500;7.772;2024-02-23T08:56:22;7.10;99.90
13794;DHT22;31160;49.500;7.772;2024-02-23T08:58:48;7.30;99.90
13794;DHT22;31160;49.500;7.772;2024-02-23T09:01:15;7.40;99.90
13794;DHT22;31160;49.500;7.772;2024-02-23T09:03:42;7.10;99.90
13794;DHT22;31160;49.500;7.772;2024-02-23T09:06:09;7.10;99.90
13794;DHT22;31160;49.500;7.772;2024-02-23T09:08:36;7.30;99.90
13794;DHT22;31160;49.500;7.772;2024-02-23T09:11:03;7.40;99.90
13794;DHT22;31160;49.500;7.772;2024-02-23T09:13:30;7.50;99.90
13794;DHT22;31160;49.500;7.772;2024-02-23T09:15:57;7.40;99.90
13794;DHT22;31160;49.500;7.772;2024-02-23T09:18:24;7.70;99.90
13794;DHT22;31160;49.500;7.772;2024-02-23T09:20:50;7.70;99.90
13794;DHT22;31160;49.500;7.772;2024-02-23T09:23:18;8.00;99.90
13794;DHT22;31160;49.500;7.772;2024-02-23T09:25:45;7.70;99.90
13794;DHT22;31160;49.500;7.772;2024-02-23T09:28:12;7.60;99.90
13794;DHT22;31160;49.500;7.772;2024-02-23T09:30:39;7.60;99.90
13794;DHT22;31160;49.500;7.772;2024-02-23T09:33:05;7.50;99.90
13794;DHT22;31160;49.500;7.772;2024-02-23T09:35:32;7.70;99.90
13794;DHT22;31160;49.500;7.772;2024-02-23T09:38:00;7.90;99.90
13794;DHT22;31160;49.500;7.772;2024-02-23T09:40:26;7.90;99.90
13794;DHT22;31160;49.500;7.772;2024-02-23T09:42:58;8.10;99.90
13794;DHT22;31160;49.500;7.772;2024-02-23T09:45:26;8.20;99.90
13794;DHT22;31160;49.500;7.772;2024-02-23T09:47:54;8.00;99.90
13794;DHT22;31160;49.500;7.772;2024-02-23T09:50:23;7.80;99.90
13794;DHT22;31160;49.500;7.772;2024-02-23T09:52:50;7.90;99.90
13794;DHT22;31160;49.500;7.772;2024-02-23T09:55:18;8.10;99.90
13794;DHT22;31160;49.500;7.772;2024-02-23T09:57:47;8.20;99.90
13794;DHT22;31160;49.500;7.772;2024-02-23T10:00:18;8.00;99.90
13794;DHT22;31160;49.500;7.772;2024-02-23T10:02:45;8.00;99.90
13794;DHT22;31160;49.500;7.772;2024-02-23T10:05:12;7.90;99.90
13794;DHT22;31160;49.500;7.772;2024-02-23T10:07:40;8.50;99.90
13794;DHT22;31160;49.500;7.772;2024-02-23T10:10:08;9.00;99.90
13794;DHT22;31160;49.500;7.772;2024-02-23T10:12:35;9.20;99.90
13794;DHT22;31160;49.500;7.772;2024-02-23T10:15:03;9.10;99.90
13794;DHT22;31160;49.500;7.772;2024-02-23T10:17:31;8.80;99.90
13794;DHT22;31160;49.500;7.772;2024-02-23T10:20:02;8.30;99.90
13794;DHT22;31160;49.500;7.772;2024-02-23T10:22:31;8.50;99.90
13794;DHT22;31160;49.500;7.772;2024-02-23T10:24:59;8.30;99.90
13794;DHT22;31160;49.500;7.772;2024-02-23T10:27:26;8.20;99.90
13794;DHT22;31160;49.500;7.772;2024-02-23T10:29:53;8.20;99.90
13794;DHT22;31160;49.500;7.772;2024-02-23T10:32:21;8.50;99.90
13794;DHT22;31160;49.500;7.772;2024-02-23T10:34:48;8.50;99.90
13794;DHT22;31160;49.500;7.772;2024-02-23T10:37:17;8.30;99.90
13794;DHT22;31160;49.500;7.772;2024-02-23T10:39:45;8.30;99.90
13794;DHT22;31160;49.500;7.772;2024-02-23T10:42:12;8.20;99.90
13794;DHT22;31160;49.500;7.772;2024-02-23T10:44:40;8.00;99.90
13794;DHT22;31160;49.500;7.772;2024-02-23T10:47:08;8.20;99.90
13794;DHT22;31160;49.500;7.772;2024-02-23T10:49:36;8.40;99.90
13794;DHT22;31160;49.500;7.772;2024-02-23T10:52:04;8.40;99.90
13794;DHT22;31160;49.500;7.772;2024-02-23T10:54:33;8.30;99.90
13794;DHT22;31160;49.500;7.772;2024-02-23T10:57:00;8.50;99.90
13794;DHT22;31160;49.500;7.772;2024-02-23T10:59:28;8.90;99.90
13794;DHT22;31160;49.500;7.772;2024-02-23T11:01:57;8.80;99.90
13794;DHT22;31160;49.500;7.772;2024-02-23T11:04:27;8.90;99.90
13794;DHT22;31160;49.500;7.772;2024-02-23T11:06:55;9.10;99.90
13794;DHT22;31160;49.500;7.772;2024-02-23T11:09:26;8.90;99.90
13794;DHT22;31160;49.500;7.772;2024-02-23T11:11:58;8.90;99.90
13794;DHT22;31160;49.500;7.772;2024-02-23T11:14:36;9.00;99.90
13794;DHT22;31160;49.500;7.772;2024-02-23T11:17:04;8.80;99.90
13794;DHT22;31160;49.500;7.772;2024-02-23T11:19:36;9.10;99.90
13794;DHT22;31160;49.500;7.772;2024-02-23T11:22:04;9.30;99.90
13794;DHT22;31160;49.500;7.772;2024-02-23T11:24:33;9.70;99.90
13794;DHT22;31160;49.500;7.772;2024-02-23T11:27:00;10.10;99.90
13794;DHT22;31160;49.500;7.772;2024-02-23T11:29:35;10.10;99.90
13794;DHT22;31160;49.500;7.772;2024-02-23T11:32:13;10.30;99.90
13794;DHT22;31160;49.500;7.772;2024-02-23T11:34:40;10.20;99.90
13794;DHT22;31160;49.500;7.772;2024-02-23T11:37:09;10.20;99.90
13794;DHT22;31160;49.500;7.772;2024-02-23T11:39:37;10.50;99.90
13794;DHT22;31160;49.500;7.772;2024-02-23T11:42:06;10.60;99.90
13794;DHT22;31160;49.500;7.772;2024-02-23T11:44:33;10.50;99.90
13794;DHT22;31160;49.500;7.772;2024-02-23T11:47:00;10.70;99.90
13794;DHT22;31160;49.500;7.772;2024-02-23T11:49:28;10.50;99.90
13794;DHT22;31160;49.500;7.772;2024-02-23T11:51:56;10.30;99.90
13794;DHT22;31160;49.500;7.772;2024-02-23T11:54:23;10.20;99.90
13794;DHT22;31160;49.500;7.772;2024-02-23T11:56:49;9.80;99.90
13794;DHT22;31160;49.500;7.772;2024-02-23T11:59:20;9.50;99.90
13794;DHT22;31160;49.500;7.772;2024-02-23T12:01:47;9.30;99.90
13794;DHT22;31160;49.500;7.772;2024-02-23T12:04:16;9.40;99.90
13794;DHT22;31160;49.500;7.772;2024-02-23T12:06:43;9.40;99.90
13794;DHT22;31160;49.500;7.772;2024-02-23T12:09:10;9.50;99.90
13794;DHT22;31160;49.500;7.772;2024-02-23T12:11:39;9.80;99.90
13794;DHT22;31160;49.500;7.772;2024-02-23T12:14:06;9.80;99.90
13794;DHT22;31160;49.500;7.772;2024-02-23T12:16:35;9.70;99.90
13794;DHT22;31160;49.500;7.772;2024-02-23T12:19:05;9.70;99.90
13794;DHT22;31160;49.500;7.772;2024-02-23T12:21:34;10.10;99.90
13794;DHT22;31160;49.500;7.772;2024-02-23T12:24:04;10.50;99.90
13794;DHT22;31160;49.500;7.772;2024-02-23T12:26:32;10.60;99.90
13794;DHT22;31160;49.500;7.772;2024-02-23T12:29:02;10.60;99.90
13794;DHT22;31160;49.500;7.772;2024-02-23T12:31:32;10.80;99.50
13794;DHT22;31160;49.500;7.772;2024-02-23T12:33:58;10.50;99.90
13794;DHT22;31160;49.500;7.772;2024-02-23T12:36:26;10.70;99.90
13794;DHT22;31160;49.500;7.772;2024-02-23T12:38:52;10.70;99.60
13794;DHT22;31160;49.500;7.772;2024-02-23T12:41:19;10.60;99.90
13794;DHT22;31160;49.500;7.772;2024-02-23T12:43:46;10.90;99.70
13794;DHT22;31160;49.500;7.772;2024-02-23T12:46:14;10.70;99.70
13794;DHT22;31160;49.500;7.772;2024-02-23T12:48:41;10.50;99.10
13794;DHT22;31160;49.500;7.772;2024-02-23T12:51:09;10.50;99.50
13794;DHT22;31160;49.500;7.772;2024-02-23T12:53:41;10.30;99.90
13794;DHT22;31160;49.500;7.772;2024-02-23T12:56:12;10.00;99.90
13794;DHT22;31160;49.500;7.772;2024-02-23T12:58:44;10.00;99.90
13794;DHT22;31160;49.500;7.772;2024-02-23T13:01:11;10.30;99.60
13794;DHT22;31160;49.500;7.772;2024-02-23T13:03:39;10.40;99.40
13794;DHT22;31160;49.500;7.772;2024-02-23T13:06:09;10.20;99.10
13794;DHT22;31160;49.500;7.772;2024-02-23T13:08:36;10.20;99.40
13794;DHT22;31160;49.500;7.772;2024-02-23T13:11:02;10.30;99.30
13794;DHT22;31160;49.500;7.772;2024-02-23T13:13:30;10.00;99.10
13794;DHT22;31160;49.500;7.772;2024-02-23T13:15:57;10.20;99.30
13794;DHT22;31160;49.500;7.772;2024-02-23T13:18:24;10.20;99.80
13794;DHT22;31160;49.500;7.772;2024-02-23T13:20:51;10.50;99.90
13794;DHT22;31160;49.500;7.772;2024-02-23T13:23:18;10.60;99.30
13794;DHT22;31160;49.500;7.772;2024-02-23T13:25:45;10.20;99.40
13794;DHT22;31160;49.500;7.772;2024-02-23T13:28:12;10.10;99.20
13794;DHT22;31160;49.500;7.772;2024-02-23T13:30:39;9.80;98.80
13794;DHT22;31160;49.500;7.772;2024-02-23T13:33:06;9.70;99.10
13794;DHT22;31160;49.500;7.772;2024-02-23T13:35:35;9.80;99.20
13794;DHT22;31160;49.500;7.772;2024-02-23T13:38:02;9.80;98.90
13794;DHT22;31160;49.500;7.772;2024-02-23T13:40:30;10.00;99.30
13794;DHT22;31160;49.500;7.772;2024-02-23T13:42:58;9.90;99.00
13794;DHT22;31160;49.500;7.772;2024-02-23T13:45:25;10.20;99.60
13794;DHT22;31160;49.500;7.772;2024-02-23T13:50:23;10.90;98.30
13794;DHT22;31160;49.500;7.772;2024-02-23T13:52:50;10.90;98.60
13794;DHT22;31160;49.500;7.772;2024-02-23T13:55:17;10.80;99.10
13794;DHT22;31160;49.500;7.772;2024-02-23T13:57:44;10.60;98.50
13794;DHT22;31160;49.500;7.772;2024-02-23T14:00:11;10.20;99.00
13794;DHT22;31160;49.500;7.772;2024-02-23T14:02:39;10.20;99.70
13794;DHT22;31160;49.500;7.772;2024-02-23T14:05:09;10.30;99.70
13794;DHT22;31160;49.500;7.772;2024-02-23T14:07:36;10.50;99.50
13794;DHT22;31160;49.500;7.772;2024-02-23T14:10:03;10.60;99.80
13794;DHT22;31160;49.500;7.772;2024-02-23T14:12:30;10.50;99.40
13794;DHT22;31160;49.500;7.772;2024-02-23T14:14:57;10.40;99.30
13794;DHT22;31160;49.500;7.772;2024-02-23T14:17:24;10.30;99.90
13794;DHT22;31160;49.500;7.772;2024-02-23T14:19:51;10.30;99.40
13794;DHT22;31160;49.500;7.772;2024-02-23T14:22:18;10.30;99.70
13794;DHT22;31160;49.500;7.772;2024-02-23T14:24:45;10.30;99.80
13794;DHT22;31160;49.500;7.772;2024-02-23T14:27:11;10.20;99.80
13794;DHT22;31160;49.500;7.772;2024-02-23T14:29:38;10.20;99.50
13794;DHT22;31160;49.500;7.772;2024-02-23T14:32:05;10.10;99.90
13794;DHT22;31160;49.500;7.772;2024-02-23T14:34:32;10.00;99.90
13794;DHT22;31160;49.500;7.772;2024-02-23T14:37:02;10.00;99.90
13794;DHT22;31160;49.500;7.772;2024-02-23T14:39:28;9.90;99.90
13794;DHT22;31160;49.500;7.772;2024-02-23T14:41:55;9.80;99.90
13794;DHT22;31160;49.500;7.772;2024-02-23T14:44:22;9.60;99.90
13794;DHT22;31160;49.500;7.772;2024-02-23T14:46:49;9.60;99.90
13794;DHT22;31160;49.500;7.772;2024-02-23T14:49:16;9.60;99.90
13794;DHT22;31160;49.500;7.772;2024-02-23T14:51:43;9.40;99.90
13794;DHT22;31160;49.500;7.772;2024-02-23T14:54:12;9.40;99.90
13794;DHT22;31160;49.500;7.772;2024-02-23T14:56:39;9.20;99.90
13794;DHT22;31160;49.500;7.772;2024-02-23T14:59:07;9.10;99.90
13794;DHT22;31160;49.500;7.772;2024-02-23T15:01:37;9.20;99.90
13794;DHT22;31160;49.500;7.772;2024-02-23T15:04:05;9.30;99.90
13794;DHT22;31160;49.500;7.772;2024-02-23T15:06:32;9.40;99.90
13794;DHT22;31160;49.500;7.772;2024-02-23T15:09:00;9.50;99.90
13794;DHT22;31160;49.500;7.772;2024-02-23T15:11:27;9.60;99.90
13794;DHT22;31160;49.500;7.772;2024-02-23T15:13:54;9.50;99.90
13794;DHT22;31160;49.500;7.772;2024-02-23T15:16:25;9.70;99.90
13794;DHT22;31160;49.500;7.772;2024-02-23T15:18:51;9.60;99.90
13794;DHT22;31160;49.500;7.772;2024-02-23T15:21:19;9.70;99.90
13794;DHT22;31160;49.500;7.772;2024-02-23T15:23:46;9.70;99.90
13794;DHT22;31160;49.500;7.772;2024-02-23T15:26:14;9.70;99.90
13794;DHT22;31160;49.500;7.772;2024-02-23T15:28:42;9.70;99.90
13794;DHT22;31160;49.500;7.772;2024-02-23T15:31:08;9.40;99.90
13794;DHT22;31160;49.500;7.772;2024-02-23T15:33:35;9.20;99.90
13794;DHT22;31160;49.500;7.772;2024-02-23T15:36:06;9.10;99.90
13794;DHT22;31160;49.500;7.772;2024-02-23T15:38:35;9.10;99.90
13794;DHT22;31160;49.500;7.772;2024-02-23T15:41:03;9.10;99.90
13794;DHT22;31160;49.500;7.772;2024-02-23T15:43:30;9.00;99.90
13794;DHT22;31160;49.500;7.772;2024-02-23T15:45:57;9.10;99.90